航空気象通報

ウインドサーファーのための航空気象通報による風予報です。

6/30-7/1の航空気象通報(国内、海外)

2008年06月30日 23時50分59秒 | TAF
羽田空港
TAF RJTT 300840Z 301812 05008KT 9999 FEW015 BKN030
BECMG 2124 12006KT
BECMG 0306 19014KT
日本時間1日03-06時:050度から8ノットの風
06-09時:風が変化
09-12時:120度から6ノットの風
12-15時:風が変化
15-21時:190度から14ノットの風


那覇空港
TAF ROAH 300835Z 301812 24007KT 9999 FEW015
日本時間1日03-21時:240度から7ノットの風


マウイのカフルイ空港
PHOG 301128Z 301212 06004KT P6SM FEW025
TEMPO 1216 BKN025
FM1900 02012KT P6SM SCT045
FM0600 06005KT P6SM FEW035
ハワイ時間30日02-09時:060度から4ノットの風
09-20時:020度から12ノットの風
20時-1日02時:060度から5ノットの風
、但し、30日02-06時:一時、

サイパン空港
PGSN 301125Z 301212 10010KT P6SM VCSH SCT040 SCT050
マリアナ時間30日22時-1日22時:100度から10ノットの風

コメント

6/29-30の航空気象通報(国内、海外)

2008年06月29日 19時21分18秒 | TAF
羽田空港
TAF RJTT 290844Z 291812 03012KT 9999 FEW008 BKN020
TEMPO 1821 FEW005 BKN008
日本時間30日03-21時:030度から12ノットの風


那覇空港
TAF ROAH 290842Z 291812 23010KT 9999 FEW010 SCT030
日本時間30日03-21時:230度から10ノットの風


マウイのカフルイ空港
PHOG 291135Z 291212 03008KT P6SM SKC
FM2000 04015KT P6SM FEW035 SCT050
FM0400 04010KT P6SM FEW035 SCT050
FM1000 04006KT P6SM SCT050
ハワイ時間29日02-10時:030度から8ノットの風
10-18時:040度から15ノットの風
18-24時:040度から10ノットの風
30日00-02時:040度から6ノットの風


サイパン空港
PGSN 291122Z 291212 10008KT P6SM VCSH SCT020 SCT040
マリアナ時間29日22時-30日22時:100度から8ノットの風

コメント

6/28-29の航空気象通報(国内、海外)

2008年06月28日 21時03分30秒 | TAF
羽田空港
TAF RJTT 280854Z 281812 18012KT 8000 -SHRA FEW010 BKN030
TEMPO 0003 4000 RA BR
TEMPO 0912 3000 SHRA BR FEW005 BKN008
日本時間29日03-21時:180度から12ノットの風


那覇空港
TAF ROAH 280839Z 281812 20011KT 9999 FEW015 SCT045
日本時間29日03-21時:200度から11ノットの風


マウイのカフルイ空港
PHOG 281137Z 281212 VRB05KT P6SM SCT050
FM1800 04014KT P6SM FEW040 SCT060
FM0700 05008KT P6SM FEW060
FM1000 VRB05KT P6SM FEW060
ハワイ時間28日02-08時:風向不定5ノットの風
08-21時:050度から14ノットの風
21-24時:050度から8ノットの風
29日00-02時:風向不定4ノットの風


サイパン空港
PGSN 281144Z 281212 08010KT P6SM VCSH SCT020CB SCT035 BKN130
TEMPO 1216 09025KT 3SM +SHRA SCT010 BKN018CB BKN030
FM1600 10010KT P6SM VCSH SCT020CB SCT040 BKN120
TEMPO 1620 11025KT 3SM +SHRA SCT010 BKN018CB BKN030
FM2000 12010KT P6SM VCSH SCT020 SCT040 BKN150
マリアナ時間28日22時-29日02時:080度から10ノットの風
但し、28日22時-29日02時:一時、090度から25ノットの風
29日02-06時:100度から10ノットの風
但し、29日02-06時:一時、110度から25ノットの風
06-22時:120度から10ノットの風

但し、28日22時-29日02時:一時、
但し、29日02-06時:一時、
コメント

6/27-28の航空気象通報(国内、海外)

2008年06月27日 23時56分16秒 | TAF
羽田空港
TAF RJTT 270851Z 271812 08005KT 9999 FEW020 BKN030
BECMG 0306 15010KT
日本時間28日03-12時:080度から5ノットの風
12-15時:風が変化
15-21時:150度から10ノットの風


那覇空港
TAF ROAH 270839Z 271812 18012KT 9999 FEW015 SCT045
日本時間28日03-21時:180度から12ノットの風


マウイのカフルイ空港
PHOG 271134Z 271212 04009KT P6SM FEW040 SCT050
FM1800 04014G22KT P6SM FEW040 SCT050
FM0700 04012KT P6SM FEW060
ハワイ時間27日02-08時:040度から9ノットの風
08-21時:040度から14ノット、突風22ノット
21時-28日02時:040度から12ノットの風


サイパン空港
TAFPQ TAF PGSN 271324Z 271312 07011KT P6SM VCSH SCT020CB SCT040
TEMPO 1315 5SM -TSRA BKN020CB BKN040 OVC120
マリアナ時間27日22時-28日22時:070度から11ノットの風

但し、27日23時-28日01時:一時、
コメント

6/26-27の航空気象通報(国内、海外)

2008年06月27日 00時02分03秒 | TAF
羽田空港
TAF RJTT 260840Z 261812 03005KT 8000 FEW010 SCT015 BKN025
BECMG 0003 10008KT
BECMG 0609 18010KT
日本時間27日03-09時:030度から5ノットの風
09-12時:風が変化
12-15時:100度から8ノットの風
15-18時:風が変化
18-21時:180度から10ノットの風


那覇空港
TAF ROAH 260845Z 261812 20010KT 9999 FEW010 SCT025
TEMPO 0306 4000 SHRA FEW008 BKN015 FEW020CB
日本時間27日03-21時:200度から10ノットの風
、但し、12-15時:一時、

マウイのカフルイ空港
PHOG 261129Z 261212 04012KT P6SM SCT050
FM2000 04017G25KT P6SM FEW030 SCT060
FM0600 04012KT P6SM FEW050
ハワイ時間26日02-10時:040度から12ノットの風
10-20時:040度から17ノット、突風25ノット
20時-27日02時:040度から12ノットの風


サイパン空港
PGSN 261123Z 261212 08011KT P6SM VCSH SCT018 SCT050
マリアナ時間26日22時-27日22時:080度から11ノットの風

コメント